Time;durP1;ratioP1;P1;durP2;ratioP2;P2;SDS_P1;SDS_P2;PMS_P1;PMS_P2;Temp;Humidity;BMP_temperature;BMP_pressure;BME280_temperature;BME280_humidity;BME280_pressure;Samples;Min_cycle;Max_cycle;Signal;HPM_P1;HPM_P2
2022/01/24 00:01:52;;;;;;;14.80;8.73;;;;;;;1.08;100.00;101765.00;5012277;28;20026;-62
2022/01/24 00:04:18;;;;;;;21.98;10.25;;;;;;;1.11;100.00;101770.34;5012678;28;20072;-62
2022/01/24 00:06:43;;;;;;;19.42;10.38;;;;;;;1.13;100.00;101763.44;5012738;28;20022;-62
2022/01/24 00:09:11;;;;;;;15.82;9.30;;;;;;;1.13;100.00;101752.94;5012727;28;20423;-63
2022/01/24 00:27:08;;;;;;;15.90;9.27;;;;;;;0.94;100.00;101740.97;5012372;28;20032;-63
2022/01/24 00:29:33;;;;;;;18.75;9.60;;;;;;;0.91;100.00;101746.09;5011648;28;20030;-62
2022/01/24 00:31:59;;;;;;;18.67;10.32;;;;;;;0.82;100.00;101731.81;5012167;28;20105;-62
2022/01/24 00:34:24;;;;;;;14.00;8.32;;;;;;;0.89;100.00;101746.91;5011817;28;20026;-63
2022/01/24 00:36:51;;;;;;;18.48;9.63;;;;;;;0.84;100.00;101743.22;5011782;28;20018;-63
2022/01/24 00:39:17;;;;;;;16.88;10.20;;;;;;;0.81;100.00;101737.88;5011633;28;20084;-63
2022/01/24 00:46:53;;;;;;;17.90;9.20;;;;;;;0.75;100.00;101749.03;5005394;28;20478;-62
2022/01/24 00:54:52;;;;;;;15.75;9.35;;;;;;;0.69;100.00;101732.25;4992058;28;20041;-63
2022/01/24 00:57:19;;;;;;;20.80;9.82;;;;;;;0.76;100.00;101742.06;4991705;28;20026;-62
2022/01/24 00:59:44;;;;;;;18.25;9.82;;;;;;;0.70;100.00;101729.66;4991466;28;20026;-62
2022/01/24 01:02:11;;;;;;;17.83;12.30;;;;;;;0.75;100.00;101738.56;4993730;28;20030;-62
2022/01/24 01:04:57;;;;;;;18.73;10.60;;;;;;;0.76;100.00;101742.06;4991253;28;20050;-62
2022/01/24 01:07:37;;;;;;;24.05;10.27;;;;;;;0.71;100.00;101736.66;4994744;28;20058;-62
2022/01/24 01:18:18;;;;;;;;;;;;;;;0.56;100.00;101730.03;4990905;28;20470;-62
2022/01/24 01:23:23;;;;;;;17.45;10.68;;;;;;;0.51;100.00;101728.97;4991377;28;20030;-62
2022/01/24 01:25:50;;;;;;;17.30;10.30;;;;;;;0.47;100.00;101721.84;4991279;28;20535;-62
2022/01/24 01:28:16;;;;;;;18.42;9.68;;;;;;;0.51;100.00;101726.38;4991280;28;20046;-64
2022/01/24 01:30:46;;;;;;;16.63;10.10;;;;;;;0.62;100.00;101732.84;4991523;28;20022;-63
2022/01/24 01:33:21;;;;;;;19.42;10.00;;;;;;;0.61;100.00;101723.22;4995615;28;20018;-63
2022/01/24 01:36:12;;;;;;;20.05;10.35;;;;;;;0.66;100.00;101732.13;5010599;28;20068;-62
2022/01/24 01:55:39;;;;;;;18.58;10.45;;;;;;;0.48;100.00;101749.81;5006073;28;20081;-63
2022/01/24 01:58:11;;;;;;;12.20;7.97;;;;;;;0.45;100.00;101753.19;4989696;28;20022;-64
2022/01/24 02:00:40;;;;;;;14.50;8.27;;;;;;;0.41;100.00;101755.66;4991188;28;20108;-64
2022/01/24 02:03:05;;;;;;;15.73;9.35;;;;;;;0.46;100.00;101764.56;4990647;28;20022;-63
2022/01/24 02:05:31;;;;;;;14.15;8.68;;;;;;;0.47;100.00;101755.88;4990609;28;20041;-64
2022/01/24 02:07:56;;;;;;;15.77;7.88;;;;;;;0.50;100.00;101761.22;4990843;28;20018;-64
2022/01/24 02:10:24;;;;;;;15.68;7.95;;;;;;;0.51;100.00;101758.66;4990568;28;20034;-64
2022/01/24 02:12:51;;;;;;;13.57;7.65;;;;;;;0.56;100.00;101748.34;4990116;28;20109;-64
2022/01/24 02:23:42;;;;;;;12.05;6.47;;;;;;;0.64;100.00;101755.66;4990470;28;20030;-64
2022/01/24 02:26:14;;;;;;;15.43;7.18;;;;;;;0.69;100.00;101750.56;4991192;28;20023;-64
2022/01/24 02:28:52;;;;;;;16.17;7.75;;;;;;;0.66;100.00;101751.34;4990900;28;20462;-64
2022/01/24 02:34:24;;;;;;;15.13;8.27;;;;;;;0.70;100.00;101744.47;4990797;28;20049;-64
2022/01/24 02:36:51;;;;;;;14.15;8.25;;;;;;;0.72;100.00;101750.66;4990461;28;20050;-64
2022/01/24 02:39:44;;;;;;;17.58;8.77;;;;;;;0.72;100.00;101742.81;4990257;28;20034;-63
2022/01/24 02:53:04;;;;;;;13.45;7.63;;;;;;;0.48;100.00;101753.31;5009564;28;20026;-64
2022/01/24 02:55:29;;;;;;;17.10;8.45;;;;;;;0.46;100.00;101756.72;5010061;28;20026;-64
2022/01/24 02:57:55;;;;;;;16.08;9.45;;;;;;;0.42;100.00;101746.97;5010175;28;20037;-64
2022/01/24 03:00:20;;;;;;;21.38;9.88;;;;;;;0.38;100.00;101748.59;5005914;28;20072;-64
2022/01/24 03:02:46;;;;;;;21.25;10.63;;;;;;;0.39;100.00;101747.75;5009484;28;20083;-63
2022/01/24 03:05:11;;;;;;;15.52;8.80;;;;;;;0.39;100.00;101741.63;5006949;28;20033;-64
2022/01/24 03:07:37;;;;;;;21.15;9.68;;;;;;;0.33;100.00;101742.28;5010183;28;20026;-64
2022/01/24 03:10:11;;;;;;;19.20;10.27;;;;;;;0.33;100.00;101733.56;5009290;28;20036;-64
2022/01/24 03:12:47;;;;;;;16.35;9.77;;;;;;;0.33;100.00;101736.19;5002963;28;20037;-64
2022/01/24 03:15:13;;;;;;;21.15;11.20;;;;;;;0.32;100.00;101721.31;4990087;28;20026;-64
2022/01/24 03:17:38;;;;;;;17.65;10.07;;;;;;;0.38;100.00;101734.63;4990380;28;20599;-64
2022/01/24 03:20:08;;;;;;;18.00;9.25;;;;;;;0.34;100.00;101730.09;5000020;28;20038;-64
2022/01/24 03:22:33;;;;;;;17.20;11.02;;;;;;;0.32;100.00;101731.78;5009612;28;20371;-64
2022/01/24 03:24:59;;;;;;;20.40;10.38;;;;;;;0.26;100.00;101727.22;5009894;28;20118;-64
2022/01/24 03:27:24;;;;;;;17.23;10.25;;;;;;;0.26;100.00;101728.94;5011516;28;20026;-64
2022/01/24 03:29:50;;;;;;;16.15;8.95;;;;;;;0.22;100.00;101730.56;5012617;28;20398;-64
2022/01/24 03:32:15;;;;;;;18.58;9.75;;;;;;;0.22;100.00;101727.94;5013300;28;20018;-64
2022/01/24 03:34:41;;;;;;;17.98;10.10;;;;;;;0.23;100.00;101723.59;5012644;28;20044;-64
2022/01/24 03:37:08;;;;;;;15.80;9.63;;;;;;;0.11;100.00;101704.84;5011779;28;20026;-64
2022/01/24 03:39:33;;;;;;;17.00;10.07;;;;;;;0.11;100.00;101717.94;5011963;28;20056;-64
2022/01/24 03:42:00;;;;;;;16.35;9.60;;;;;;;0.13;100.00;101717.16;4999211;28;20045;-64
2022/01/24 03:44:27;;;;;;;17.23;9.40;;;;;;;0.14;100.00;101713.69;4992620;28;20106;-64
2022/01/24 03:49:45;;;;;;;14.82;9.45;;;;;;;0.11;100.00;101717.94;4992690;28;20105;-64
2022/01/24 03:52:16;;;;;;;15.90;9.23;;;;;;;0.15;100.00;101722.44;4993722;28;20032;-64
2022/01/24 03:54:43;;;;;;;19.92;11.57;;;;;;;0.10;100.00;101722.25;4993056;28;20109;-64
2022/01/24 03:57:10;;;;;;;18.85;10.05;;;;;;;0.10;100.00;101721.38;4993456;28;20041;-64
2022/01/24 03:59:36;;;;;;;18.98;11.32;;;;;;;0.09;100.00;101725.72;4992198;28;20038;-64
2022/01/24 04:02:03;;;;;;;17.65;9.73;;;;;;;0.02;100.00;101723.72;4993414;28;20037;-64
2022/01/24 04:04:29;;;;;;;16.35;9.88;;;;;;;0.02;100.00;101728.06;4992841;28;20026;-64
2022/01/24 04:06:55;;;;;;;15.73;10.13;;;;;;;-0.01;100.00;101724.50;4993103;28;20466;-64
2022/01/24 04:09:20;;;;;;;15.80;10.32;;;;;;;-0.07;100.00;101719.03;4991977;28;20050;-64
2022/01/24 04:11:50;;;;;;;17.52;9.75;;;;;;;-0.09;100.00;101720.72;4999565;28;20121;-64
2022/01/24 04:14:31;;;;;;;16.10;8.68;;;;;;;-0.05;100.00;101722.59;4992652;28;20034;-64
2022/01/24 04:22:34;;;;;;;20.83;10.40;;;;;;;-0.05;100.00;101721.72;4992361;28;20038;-64
2022/01/24 04:25:02;;;;;;;19.10;10.25;;;;;;;-0.09;100.00;101725.94;4992899;28;20433;-64
2022/01/24 04:27:29;;;;;;;15.85;9.43;;;;;;;-0.04;100.00;101721.78;4992778;28;20026;-64
2022/01/24 04:29:55;;;;;;;17.25;9.00;;;;;;;-0.02;100.00;101716.59;4991509;28;20057;-64
2022/01/24 04:32:21;;;;;;;16.80;9.18;;;;;;;-0.03;100.00;101728.78;4992573;28;20405;-64
2022/01/24 04:34:47;;;;;;;14.13;9.20;;;;;;;-0.04;100.00;101720.88;5003732;28;20026;-64
2022/01/24 04:37:13;;;;;;;24.20;11.68;;;;;;;-0.01;100.00;101728.84;5011818;28;20168;-64
2022/01/24 04:39:39;;;;;;;28.27;15.77;;;;;;;-0.03;100.00;101725.25;5011946;28;20100;-64
2022/01/24 04:42:12;;;;;;;29.95;16.83;;;;;;;-0.07;100.00;101721.63;4997939;28;20030;-64
2022/01/24 04:45:20;;;;;;;22.10;12.73;;;;;;;-0.07;100.00;101728.63;4994389;28;20517;-64
2022/01/24 04:53:04;;;;;;;17.23;11.20;;;;;;;-0.12;100.00;101722.31;4994470;28;20030;-64
2022/01/24 04:55:29;;;;;;;17.27;11.13;;;;;;;-0.11;100.00;101719.75;4991778;28;20109;-64
2022/01/24 04:57:55;;;;;;;15.80;10.82;;;;;;;-0.20;100.00;101711.56;4992399;28;20041;-64
2022/01/24 05:00:20;;;;;;;31.60;11.90;;;;;;;-0.11;100.00;101725.00;4991616;28;20048;-63
2022/01/24 05:02:46;;;;;;;20.52;10.07;;;;;;;-0.08;100.00;101726.81;4997044;28;20024;-63
2022/01/24 05:05:16;;;;;;;20.63;11.50;;;;;;;-0.10;100.00;101728.50;5011566;28;20041;-63
2022/01/24 05:07:42;;;;;;;17.77;9.98;;;;;;;-0.15;100.00;101725.69;5011663;28;20485;-63
2022/01/24 05:23:36;;;;;;;14.88;9.57;;;;;;;-0.32;100.00;101729.41;4991277;28;20049;-64
2022/01/24 05:26:04;;;;;;;14.48;7.90;;;;;;;-0.31;100.00;101723.34;4991424;28;20034;-64
2022/01/24 05:28:31;;;;;;;20.52;9.75;;;;;;;-0.33;100.00;101730.22;4991467;28;20030;-63
2022/01/24 05:30:58;;;;;;;11.55;8.18;;;;;;;-0.30;100.00;101725.13;4990655;28;20030;-64
2022/01/24 05:33:24;;;;;;;16.02;9.25;;;;;;;-0.31;100.00;101712.88;4991320;28;20505;-64
2022/01/24 05:35:50;;;;;;;14.75;8.95;;;;;;;-0.15;100.00;101725.69;4991363;28;20026;-64
2022/01/24 05:38:16;;;;;;;16.45;9.13;;;;;;;-0.16;100.00;101734.38;4991322;28;20065;-64
2022/01/24 05:40:41;;;;;;;17.05;10.50;;;;;;;-0.16;100.00;101729.16;4993469;28;20034;-63
2022/01/24 05:43:07;;;;;;;25.30;11.35;;;;;;;-0.09;100.00;101725.94;4990907;28;20049;-63
2022/01/24 05:45:33;;;;;;;33.53;14.70;;;;;;;-0.13;100.00;101724.03;4990990;28;20117;-64
2022/01/24 05:47:59;;;;;;;27.98;12.85;;;;;;;-0.14;100.00;101734.44;4993525;28;20068;-64
2022/01/24 05:50:25;;;;;;;29.23;13.10;;;;;;;-0.17;100.00;101732.63;4990376;28;20026;-63
2022/01/24 05:52:50;;;;;;;24.58;12.27;;;;;;;-0.20;100.00;101734.22;4990954;28;20054;-63
2022/01/24 05:55:16;;;;;;;50.67;22.05;;;;;;;-0.25;100.00;101720.09;4990949;28;20431;-63
2022/01/24 05:57:42;;;;;;;42.63;21.90;;;;;;;-0.15;100.00;101732.66;4991329;28;20030;-63
2022/01/24 06:00:11;;;;;;;46.38;23.75;;;;;;;-0.15;100.00;101725.69;4991235;28;20034;-63
2022/01/24 06:02:36;;;;;;;35.08;19.08;;;;;;;-0.13;100.00;101729.25;4989893;28;20038;-64
2022/01/24 06:05:02;;;;;;;30.88;17.85;;;;;;;-0.20;100.00;101710.69;4989794;28;20030;-63
2022/01/24 06:07:27;;;;;;;28.63;14.20;;;;;;;-0.11;100.00;101734.56;4990519;28;20104;-64
2022/01/24 06:09:53;;;;;;;27.48;14.63;;;;;;;-0.13;100.00;101734.50;4990402;28;20037;-63
2022/01/24 06:12:18;;;;;;;23.77;13.20;;;;;;;-0.15;100.00;101728.31;4990618;28;20030;-63
2022/01/24 06:14:44;;;;;;;21.08;13.25;;;;;;;-0.15;100.00;101730.06;4991083;28;20027;-64
2022/01/24 06:17:10;;;;;;;25.73;12.13;;;;;;;-0.16;100.00;101717.78;4990943;28;20050;-64
2022/01/24 06:19:36;;;;;;;22.90;13.32;;;;;;;-0.12;100.00;101724.94;4990103;28;20463;-63
2022/01/24 06:22:02;;;;;;;26.85;11.23;;;;;;;-0.08;100.00;101737.28;4990718;28;20026;-63
2022/01/24 06:24:27;;;;;;;26.55;11.20;;;;;;;-0.10;100.00;101739.84;4990749;28;20038;-63
2022/01/24 06:26:53;;;;;;;18.60;10.88;;;;;;;-0.09;100.00;101735.50;4990608;28;20048;-63
2022/01/24 06:29:18;;;;;;;20.58;10.90;;;;;;;-0.11;100.00;101735.44;4990350;28;20032;-63
2022/01/24 06:31:44;;;;;;;18.50;10.75;;;;;;;-0.21;100.00;101712.41;4990203;28;20023;-63
2022/01/24 06:34:10;;;;;;;21.95;10.88;;;;;;;-0.15;100.00;101728.31;4990906;28;20034;-63
2022/01/24 06:36:35;;;;;;;16.45;9.20;;;;;;;-0.19;100.00;101739.50;4990593;28;20088;-63
2022/01/24 06:39:02;;;;;;;21.58;10.45;;;;;;;-0.20;100.00;101740.31;4991705;28;20034;-63
2022/01/24 06:41:32;;;;;;;15.00;9.63;;;;;;;-0.23;100.00;101744.56;4988782;28;20022;-63
2022/01/24 06:43:58;;;;;;;15.27;9.98;;;;;;;-0.35;100.00;101724.09;4992991;28;20080;-63
2022/01/24 06:46:24;;;;;;;26.05;11.38;;;;;;;-0.32;100.00;101729.41;4990703;28;20109;-63
2022/01/24 06:48:49;;;;;;;21.73;12.35;;;;;;;-0.21;100.00;101743.78;4989964;28;20024;-63
2022/01/24 06:51:17;;;;;;;21.63;11.02;;;;;;;-0.17;100.00;101743.06;4990044;28;20030;-63
2022/01/24 06:53:42;;;;;;;20.90;12.30;;;;;;;-0.15;100.00;101737.91;4990355;28;20168;-63
2022/01/24 06:56:08;;;;;;;18.88;10.85;;;;;;;-0.17;100.00;101735.22;4992788;28;20022;-63
2022/01/24 06:58:35;;;;;;;31.27;12.65;;;;;;;-0.22;100.00;101739.41;4990540;28;20061;-63
2022/01/24 07:01:01;;;;;;;21.00;11.00;;;;;;;-0.22;100.00;101747.25;4989869;28;20026;-63
2022/01/24 07:03:26;;;;;;;12.10;7.65;;;;;;;-0.15;100.00;101745.75;4993919;28;20041;-63
2022/01/24 07:05:52;;;;;;;20.30;9.98;;;;;;;-0.17;100.00;101740.47;4993733;28;20026;-63
2022/01/24 07:08:17;;;;;;;20.15;9.32;;;;;;;-0.15;100.00;101741.38;4994511;28;20363;-63
2022/01/24 07:10:43;;;;;;;17.55;9.05;;;;;;;-0.10;100.00;101744.19;4997326;28;20446;-63
2022/01/24 07:13:08;;;;;;;19.52;10.38;;;;;;;-0.05;100.00;101747.88;4994339;28;20085;-63
2022/01/24 07:15:39;;;;;;;19.80;11.10;;;;;;;0.00;100.00;101741.09;4996486;28;20022;-63
2022/01/24 07:20:35;;;;;;;27.17;11.13;;;;;;;0.08;100.00;101736.13;4993871;28;20031;-63
2022/01/24 07:23:01;;;;;;;20.08;10.20;;;;;;;0.08;100.00;101743.97;4994004;28;20371;-63
2022/01/24 07:25:26;;;;;;;22.17;11.90;;;;;;;0.09;100.00;101745.75;4994044;28;20139;-63
2022/01/24 07:27:52;;;;;;;19.10;10.95;;;;;;;0.11;100.00;101752.84;4993349;28;20030;-63
2022/01/24 07:30:17;;;;;;;24.73;12.50;;;;;;;0.19;100.00;101755.72;4993298;28;20026;-63
2022/01/24 07:32:42;;;;;;;21.08;11.82;;;;;;;0.24;100.00;101748.94;4993073;28;20065;-63
2022/01/24 07:35:09;;;;;;;18.33;11.68;;;;;;;0.25;100.00;101748.13;4996573;28;20027;-63
2022/01/24 07:37:34;;;;;;;28.02;12.88;;;;;;;0.39;100.00;101752.09;4993282;28;20034;-63
2022/01/24 07:40:00;;;;;;;20.80;10.93;;;;;;;0.46;100.00;101754.97;4993126;28;20053;-63
2022/01/24 07:42:40;;;;;;;18.40;11.75;;;;;;;0.51;100.00;101744.69;4993230;28;20029;-63
2022/01/24 07:45:06;;;;;;;18.02;10.20;;;;;;;0.63;100.00;101747.72;4993140;28;20026;-63
2022/01/24 07:47:31;;;;;;;19.90;11.60;;;;;;;0.71;100.00;101759.38;4995442;28;20076;-63
2022/01/24 07:49:57;;;;;;;16.77;10.70;;;;;;;0.78;100.00;101743.00;4993353;28;20463;-62
2022/01/24 07:52:22;;;;;;;20.73;11.07;;;;;;;0.85;100.00;101739.75;4992876;28;20129;-63
2022/01/24 07:54:48;;;;;;;26.30;13.15;;;;;;;0.97;100.00;101742.81;4992806;28;20467;-63
2022/01/24 07:57:13;;;;;;;28.48;12.77;;;;;;;1.30;100.00;101747.41;4992999;28;20030;-63
2022/01/24 07:59:38;;;;;;;22.08;12.88;;;;;;;1.75;100.00;101747.94;4992827;28;20479;-63
2022/01/24 08:02:04;;;;;;;22.92;13.48;;;;;;;2.29;100.00;101751.31;4993223;28;20591;-63
2022/01/24 08:04:29;;;;;;;26.58;12.65;;;;;;;2.80;100.00;101750.06;4993124;28;20034;-63
2022/01/24 08:06:55;;;;;;;28.23;14.57;;;;;;;3.50;100.00;101752.72;4992660;28;20022;-63
2022/01/24 08:09:20;;;;;;;29.25;15.65;;;;;;;4.38;100.00;101750.28;4992700;28;20030;-63
2022/01/24 08:11:46;;;;;;;26.45;14.15;;;;;;;5.64;100.00;101747.22;4993034;28;20033;-62
2022/01/24 08:14:11;;;;;;;28.27;14.77;;;;;;;7.08;100.00;101750.78;4992367;28;20022;-62
2022/01/24 08:16:37;;;;;;;29.95;14.35;;;;;;;8.69;92.60;101742.91;4992747;28;20053;-62
2022/01/24 08:19:03;;;;;;;21.00;11.68;;;;;;;9.80;80.73;101727.00;4992761;28;20046;-62
2022/01/24 08:21:28;;;;;;;17.63;10.82;;;;;;;10.92;68.95;101737.19;4992757;28;20030;-61
2022/01/24 08:23:57;;;;;;;26.13;12.27;;;;;;;11.71;60.58;101738.34;4992461;28;20023;-62
2022/01/24 08:26:23;;;;;;;32.25;15.43;;;;;;;12.62;56.24;101743.50;4992122;28;20076;-62
2022/01/24 08:28:48;;;;;;;27.60;14.65;;;;;;;13.72;51.44;101747.13;4992622;28;20026;-62
2022/01/24 08:31:14;;;;;;;36.30;19.70;;;;;;;14.62;48.01;101744.44;4992396;28;20045;-63
2022/01/24 08:33:40;;;;;;;30.35;15.32;;;;;;;15.28;45.88;101746.47;4992479;28;20475;-63
2022/01/24 08:36:05;;;;;;;28.80;16.73;;;;;;;15.94;44.53;101751.06;4994668;28;20108;-63
2022/01/24 08:38:34;;;;;;;16.88;8.50;;;;;;;16.43;42.39;101751.44;4992266;28;20031;-62
2022/01/24 08:41:06;;;;;;;16.05;8.90;;;;;;;16.55;41.32;101751.13;4992594;28;20402;-62
2022/01/24 08:43:57;;;;;;;13.52;8.85;;;;;;;17.08;40.21;101753.06;4992141;28;20045;-63
2022/01/24 08:46:23;;;;;;;15.15;8.45;;;;;;;17.63;38.97;101752.16;4994654;28;20101;-63
2022/01/24 08:48:49;;;;;;;12.55;7.10;;;;;;;17.85;38.19;101748.69;4992681;28;20568;-63
2022/01/24 08:51:15;;;;;;;13.30;7.20;;;;;;;18.11;38.27;101740.56;4992333;28;20022;-63
2022/01/24 08:53:41;;;;;;;11.57;6.93;;;;;;;18.03;38.23;101750.75;4991192;28;20112;-63
2022/01/24 08:56:07;;;;;;;16.33;8.63;;;;;;;18.23;37.99;101739.25;4992307;28;20808;-63
2022/01/24 08:58:34;;;;;;;14.93;9.15;;;;;;;18.57;37.13;101734.38;4994553;28;20034;-64
2022/01/24 09:01:03;;;;;;;11.93;6.70;;;;;;;19.12;36.79;101738.50;4992240;28;20033;-64
2022/01/24 09:03:32;;;;;;;11.00;6.72;;;;;;;19.32;36.70;101741.28;4992028;28;20037;-64
2022/01/24 09:06:00;;;;;;;9.07;5.72;;;;;;;19.76;35.80;101725.91;4991967;28;20041;-64
2022/01/24 09:08:26;;;;;;;11.35;6.40;;;;;;;19.64;36.22;101732.72;4991935;28;20045;-64
2022/01/24 09:10:52;;;;;;;9.38;5.53;;;;;;;19.14;36.65;101734.78;4991944;28;20078;-64
2022/01/24 09:13:21;;;;;;;11.75;6.53;;;;;;;19.46;36.39;101730.78;4993615;28;20414;-64
2022/01/24 09:15:47;;;;;;;10.65;5.95;;;;;;;20.00;36.45;101724.84;4994598;28;20029;-64
2022/01/24 09:18:13;;;;;;;21.60;9.43;;;;;;;20.09;35.59;101733.44;4991708;28;20038;-64
2022/01/24 09:20:38;;;;;;;15.63;6.53;;;;;;;19.87;36.04;101727.19;4991816;28;20038;-64
2022/01/24 09:23:09;;;;;;;14.32;7.55;;;;;;;19.88;35.14;101728.09;4993130;28;20057;-64
2022/01/24 09:25:35;;;;;;;16.77;7.97;;;;;;;19.17;36.50;101731.97;4991183;28;20483;-63
2022/01/24 09:28:01;;;;;;;12.85;7.28;;;;;;;18.95;36.60;101735.56;4990427;28;20029;-63
2022/01/24 09:30:26;;;;;;;12.70;6.65;;;;;;;19.33;35.70;101733.13;4990665;28;20021;-63
2022/01/24 09:32:57;;;;;;;12.63;6.72;;;;;;;19.58;36.22;101733.88;4991270;28;20030;-63
2022/01/24 09:35:23;;;;;;;14.00;8.07;;;;;;;19.89;36.03;101733.41;4991905;28;20050;-63
2022/01/24 09:37:49;;;;;;;11.85;6.65;;;;;;;20.42;35.01;101736.47;4993806;28;20058;-63
2022/01/24 09:40:16;;;;;;;13.57;6.15;;;;;;;20.11;33.89;101734.25;4991530;28;20101;-63
2022/01/24 09:42:44;;;;;;;9.48;5.25;;;;;;;18.90;36.62;101742.97;4991086;28;20068;-63
2022/01/24 09:45:10;;;;;;;9.80;5.45;;;;;;;19.26;36.22;101741.50;4991581;28;20088;-63
2022/01/24 09:47:36;;;;;;;13.48;6.75;;;;;;;18.81;35.66;101732.56;4991216;28;20033;-63
2022/01/24 09:50:05;;;;;;;11.35;5.80;;;;;;;18.73;35.68;101734.69;4990938;28;20031;-63
2022/01/24 09:52:32;;;;;;;10.70;6.40;;;;;;;19.16;36.44;101745.53;4993154;28;20079;-63
2022/01/24 09:54:57;;;;;;;11.38;7.10;;;;;;;19.10;36.38;101745.75;4991263;28;20105;-63
2022/01/24 09:57:23;;;;;;;11.20;6.75;;;;;;;19.30;36.25;101741.34;4991254;28;20594;-63
2022/01/24 09:59:49;;;;;;;13.02;6.85;;;;;;;19.36;36.07;101748.31;4990606;28;20084;-64
2022/01/24 10:02:14;;;;;;;16.00;7.78;;;;;;;19.03;35.98;101739.72;4989874;28;20026;-64
2022/01/24 10:04:39;;;;;;;12.45;7.07;;;;;;;19.30;35.67;101737.78;4990005;28;20034;-64
2022/01/24 10:07:16;;;;;;;12.50;7.53;;;;;;;19.45;35.74;101742.53;4991036;28;20134;-65
2022/01/24 10:09:44;;;;;;;10.73;5.50;;;;;;;19.57;36.05;101739.34;4990433;28;20030;-62
2022/01/24 10:17:39;;;;;;;10.65;6.47;;;;;;;19.58;36.70;101738.38;4990916;28;20073;-61
2022/01/24 10:20:21;;;;;;;11.35;6.07;;;;;;;19.79;35.69;101726.66;4990507;28;20053;-61
2022/01/24 10:23:26;;;;;;;11.95;5.88;;;;;;;19.47;35.72;101732.56;4991262;28;20031;-61
2022/01/24 10:26:04;;;;;;;13.48;6.63;;;;;;;19.44;35.06;101729.97;4989022;28;20458;-62
2022/01/24 10:28:38;;;;;;;10.27;5.88;;;;;;;19.39;36.22;101735.56;4993487;28;20395;-61
2022/01/24 10:31:08;;;;;;;11.90;6.68;;;;;;;18.28;36.81;101727.38;4990313;28;20113;-61
2022/01/24 10:34:02;;;;;;;11.60;6.05;;;;;;;18.06;38.59;101731.78;4990674;28;20482;-61
2022/01/24 10:36:38;;;;;;;9.93;5.97;;;;;;;17.64;37.99;101729.72;4992398;28;20023;-61
2022/01/24 10:39:27;;;;;;;12.07;5.70;;;;;;;17.55;37.94;101733.59;4994728;28;20062;-61
2022/01/24 10:45:01;;;;;;;9.50;5.43;;;;;;;17.69;39.48;101727.75;4993353;28;20027;-61
2022/01/24 10:47:32;;;;;;;11.75;6.70;;;;;;;17.85;38.40;101716.38;4994286;28;20360;-61
2022/01/24 10:50:01;;;;;;;12.65;6.82;;;;;;;18.21;39.28;101717.75;4993678;28;20049;-62
2022/01/24 10:52:30;;;;;;;10.63;6.30;;;;;;;18.18;38.32;101720.56;4994599;28;20030;-61
2022/01/24 10:55:16;;;;;;;11.65;6.03;;;;;;;17.84;38.79;101720.00;4996449;28;20033;-62
2022/01/24 10:57:44;;;;;;;11.38;5.55;;;;;;;17.27;39.60;101732.72;4996843;28;20037;-62
2022/01/24 11:00:15;;;;;;;10.15;5.93;;;;;;;17.58;39.99;101725.41;4994497;28;20045;-62
2022/01/24 11:02:43;;;;;;;10.20;5.63;;;;;;;17.85;38.43;101710.13;4994899;28;20041;-62
2022/01/24 11:05:09;;;;;;;10.25;5.55;;;;;;;17.81;38.02;101708.44;4996453;28;20045;-62
2022/01/24 11:07:56;;;;;;;10.90;6.20;;;;;;;17.52;39.74;101712.16;5000935;28;20397;-61
2022/01/24 11:10:23;;;;;;;12.80;7.10;;;;;;;17.27;39.96;101705.81;5013616;28;20036;-61
2022/01/24 11:12:50;;;;;;;11.52;7.10;;;;;;;17.47;40.12;101692.63;4995551;28;20032;-61
2022/01/24 11:15:15;;;;;;;11.68;6.38;;;;;;;17.10;38.84;101709.06;4996524;28;20112;-62
2022/01/24 11:17:43;;;;;;;12.45;6.20;;;;;;;17.08;40.49;101699.28;4993801;28;20082;-62
2022/01/24 11:20:12;;;;;;;11.98;6.60;;;;;;;17.15;39.21;101695.44;4993754;28;20022;-62
2022/01/24 11:22:44;;;;;;;12.75;6.45;;;;;;;17.02;40.49;101700.34;4994453;28;20171;-62
2022/01/24 11:25:12;;;;;;;12.55;6.68;;;;;;;17.28;39.56;101696.81;4994000;28;20484;-63
2022/01/24 11:27:40;;;;;;;9.70;6.30;;;;;;;17.38;40.41;101695.56;4992396;28;20022;-63
2022/01/24 11:30:13;;;;;;;10.18;6.20;;;;;;;17.29;39.64;101698.59;4993429;28;20046;-63
2022/01/24 11:32:42;;;;;;;12.38;6.57;;;;;;;17.13;39.75;101700.88;4992518;28;20061;-63
2022/01/24 11:35:08;;;;;;;11.48;6.20;;;;;;;16.73;40.21;101708.47;4993003;28;20402;-63
2022/01/24 11:37:45;;;;;;;11.95;6.78;;;;;;;16.73;41.44;101702.22;4993483;28;20022;-65
2022/01/24 11:40:17;;;;;;;9.90;6.18;;;;;;;16.41;41.64;101695.09;4993733;28;20034;-64
2022/01/24 11:42:46;;;;;;;11.35;7.10;;;;;;;17.03;39.98;101695.88;4993358;28;20022;-63
2022/01/24 11:45:17;;;;;;;9.52;5.60;;;;;;;16.94;39.79;101658.50;5010227;28;20371;-63
2022/01/24 11:47:46;;;;;;;11.38;6.90;;;;;;;17.18;41.55;101690.00;5009019;28;20018;-63
2022/01/24 11:50:23;;;;;;;11.30;7.07;;;;;;;17.36;40.67;101692.06;5012801;28;20028;-63
2022/01/24 11:52:50;;;;;;;13.05;8.15;;;;;;;17.22;39.17;101690.75;5012927;28;20160;-63
2022/01/24 11:55:27;;;;;;;10.93;6.30;;;;;;;16.97;40.38;101685.28;5012413;28;20034;-63
2022/01/24 11:57:58;;;;;;;11.63;6.45;;;;;;;17.03;39.83;101677.06;5012929;28;20037;-63
2022/01/24 12:00:27;;;;;;;11.63;6.75;;;;;;;16.99;40.04;101683.44;5012813;28;20424;-62
2022/01/24 12:02:58;;;;;;;10.43;6.22;;;;;;;17.04;41.22;101686.88;5012727;28;20036;-62
2022/01/24 12:05:26;;;;;;;11.07;6.05;;;;;;;16.74;40.79;101679.78;5012215;28;20061;-62
2022/01/24 12:08:00;;;;;;;10.95;6.13;;;;;;;16.90;41.44;101673.84;5012245;28;20026;-63
2022/01/24 12:13:09;;;;;;;10.55;6.55;;;;;;;17.35;41.17;101671.47;4993207;28;20062;-62
2022/01/24 12:15:37;;;;;;;9.98;6.10;;;;;;;17.91;39.19;101667.69;4992902;28;20109;-63
2022/01/24 12:18:27;;;;;;;13.35;7.32;;;;;;;18.21;39.22;101662.97;4992764;28;20061;-63
2022/01/24 12:20:57;;;;;;;9.65;6.10;;;;;;;18.63;38.08;101658.69;4994806;28;20038;-63
2022/01/24 12:23:25;;;;;;;10.00;5.38;;;;;;;18.66;37.49;101655.88;4994979;28;20817;-62
2022/01/24 12:25:58;;;;;;;12.80;7.38;;;;;;;18.91;37.14;101650.38;4992967;28;20029;-62
2022/01/24 12:28:31;;;;;;;10.13;6.18;;;;;;;18.74;37.91;101655.53;4992663;28;20019;-62
2022/01/24 12:30:56;;;;;;;;;;;;;;;19.05;36.92;101650.66;4992845;28;20525;-62
2022/01/24 12:33:54;;;;;;;10.10;5.83;;;;;;;19.63;37.77;101649.97;4992562;28;19948;-62
2022/01/24 12:36:47;;;;;;;13.68;7.10;;;;;;;18.47;38.09;101651.25;4992411;28;20336;-62
2022/01/24 12:39:24;;;;;;;10.57;6.40;;;;;;;18.48;39.26;101653.00;4992355;28;20037;-62
2022/01/24 12:41:59;;;;;;;15.50;10.30;;;;;;;18.67;38.17;101643.25;4992133;28;20054;-62
2022/01/24 12:47:12;;;;;;;13.32;7.85;;;;;;;19.80;36.26;101635.72;4992682;28;20030;-62
2022/01/24 12:49:39;;;;;;;18.65;12.05;;;;;;;20.01;35.58;101635.63;4991934;28;20043;-62
2022/01/24 12:52:08;;;;;;;10.18;7.03;;;;;;;20.13;35.00;101629.66;4994467;28;20037;-62
2022/01/24 12:54:38;;;;;;;10.27;6.10;;;;;;;19.37;36.42;101620.53;4992114;28;20034;-62
2022/01/24 12:57:07;;;;;;;9.90;5.32;;;;;;;19.12;36.85;101617.09;4991885;28;20030;-62
2022/01/24 12:59:36;;;;;;;9.02;5.63;;;;;;;19.33;37.64;101613.50;4991235;28;20042;-62
2022/01/24 13:02:05;;;;;;;9.27;6.18;;;;;;;19.17;36.74;101623.19;4997486;28;20043;-62
2022/01/24 13:04:37;;;;;;;8.73;4.55;;;;;;;17.79;37.93;101614.28;4991951;28;20501;-62
2022/01/24 13:07:04;;;;;;;12.07;5.97;;;;;;;16.02;41.07;101621.09;5002711;28;20033;-61
2022/01/24 13:09:30;;;;;;;11.70;6.60;;;;;;;14.69;44.50;101622.88;5011073;28;20504;-61
2022/01/24 13:12:00;;;;;;;12.75;7.88;;;;;;;13.73;46.83;101620.50;4998854;28;20030;-61
2022/01/24 13:14:41;;;;;;;11.20;6.60;;;;;;;12.78;49.20;101622.22;4990779;28;20061;-61
2022/01/24 13:25:27;;;;;;;10.65;6.88;;;;;;;11.07;56.29;101601.28;4991888;28;20037;-60
2022/01/24 13:28:05;;;;;;;10.15;6.50;;;;;;;11.05;56.73;101613.72;4991556;28;20030;-60
2022/01/24 13:30:45;;;;;;;10.10;5.43;;;;;;;10.94;57.23;101607.63;4990919;28;20034;-61